createdAt,value
2018-06-14T00:04:16.628Z,0.4
2018-06-14T00:09:17.384Z,0.4
2018-06-14T00:14:17.263Z,0.4
2018-06-14T00:19:17.038Z,0.4
2018-06-14T00:24:17.053Z,0.4
2018-06-14T00:29:16.876Z,0.4
2018-06-14T00:34:16.726Z,0.4
2018-06-14T00:39:17.499Z,0.4
2018-06-14T00:44:17.305Z,0.4
2018-06-14T00:49:17.101Z,0.4
2018-06-14T00:54:16.788Z,0.4
2018-06-14T00:59:17.474Z,0.4
2018-06-14T01:04:17.302Z,0
2018-06-14T01:09:17.090Z,0
2018-06-14T01:14:16.975Z,0
2018-06-14T01:19:16.874Z,0
2018-06-14T01:24:16.581Z,0
2018-06-14T01:29:17.337Z,0
2018-06-14T01:34:17.219Z,0.4
2018-06-14T01:39:16.967Z,0.4
2018-06-14T01:44:16.825Z,0.4
2018-06-14T01:49:16.754Z,0.4
2018-06-14T01:54:17.519Z,0.4
2018-06-14T01:59:17.278Z,0.4
2018-06-14T02:04:17.106Z,0.4
2018-06-14T02:09:16.829Z,0.4
2018-06-14T02:14:17.506Z,0.9
2018-06-14T02:19:17.320Z,0.9
2018-06-14T02:24:17.271Z,0.9
2018-06-14T02:29:17.076Z,0.9
2018-06-14T02:34:16.824Z,0.4
2018-06-14T02:39:17.617Z,0.4
2018-06-14T02:44:17.322Z,0.5
2018-06-14T02:49:17.073Z,0.5
2018-06-14T02:54:16.763Z,0.4
2018-06-14T02:59:17.526Z,0.4
2018-06-14T03:04:16.941Z,0.4
2018-06-14T03:09:18.721Z,0.4
2018-06-14T03:14:17.734Z,0.4
2018-06-14T03:19:17.547Z,0.4
2018-06-14T03:24:17.374Z,0.6
2018-06-14T03:29:17.083Z,0.6
2018-06-14T03:34:16.912Z,0.9
2018-06-14T03:39:17.609Z,0.9
2018-06-14T03:44:17.393Z,0.9
2018-06-14T03:49:17.267Z,0.9
2018-06-14T03:54:17.026Z,0.9
2018-06-14T03:59:16.849Z,0.9
2018-06-14T04:04:17.898Z,0.9
2018-06-14T04:09:17.153Z,0.9
2018-06-14T04:14:17.001Z,0.9
2018-06-14T04:19:16.841Z,0.9
2018-06-14T04:24:17.653Z,0.9
2018-06-14T04:29:17.477Z,0.9
2018-06-14T04:34:16.780Z,0.9
2018-06-14T04:39:17.607Z,0.9
2018-06-14T04:44:17.487Z,0.9
2018-06-14T04:49:17.362Z,0.9
2018-06-14T04:54:17.069Z,0.9
2018-06-14T04:59:16.871Z,0.9
2018-06-14T05:04:17.733Z,1
2018-06-14T05:09:16.903Z,1
2018-06-14T05:14:17.705Z,1.3
2018-06-14T05:19:16.880Z,1.3
2018-06-14T05:24:17.703Z,1.2
2018-06-14T05:29:17.552Z,1.2
2018-06-14T05:34:17.444Z,1.3
2018-06-14T05:39:17.260Z,1.3
2018-06-14T05:44:17.088Z,0.9
2018-06-14T05:49:16.954Z,0.9
2018-06-14T05:54:16.955Z,1.3
2018-06-14T05:59:17.715Z,1.3
2018-06-14T06:04:17.635Z,1.6
2018-06-14T06:09:17.868Z,1.6
2018-06-14T06:14:16.997Z,2.2
2018-06-14T06:19:17.605Z,2.2
2018-06-14T06:24:17.531Z,2.2
2018-06-14T06:29:17.444Z,2.2
2018-06-14T06:34:17.298Z,1.8
2018-06-14T06:39:17.026Z,1.8
2018-06-14T06:44:17.816Z,1.8
2018-06-14T06:49:17.953Z,1.8
2018-06-14T06:54:17.769Z,2.2
2018-06-14T06:59:17.471Z,2.2
2018-06-14T07:04:17.257Z,2.2
2018-06-14T07:09:17.496Z,2.2
2018-06-14T07:14:17.292Z,1.8
2018-06-14T07:19:17.054Z,1.8
2018-06-14T07:24:17.879Z,2.5
2018-06-14T07:29:17.692Z,2.5
2018-06-14T07:34:17.529Z,2.7
2018-06-14T07:39:17.279Z,2.7
2018-06-14T07:44:17.974Z,2.7
2018-06-14T07:49:17.699Z,2.7
2018-06-14T07:54:17.799Z,2.2
2018-06-14T07:59:17.561Z,2.2
2018-06-14T08:04:17.421Z,2.7
2018-06-14T08:09:17.270Z,2.7
2018-06-14T08:14:17.163Z,2.2
2018-06-14T08:19:17.863Z,2.2
2018-06-14T08:24:17.080Z,2.7
2018-06-14T08:29:17.894Z,2.7
2018-06-14T08:34:17.776Z,2.7
2018-06-14T08:39:17.564Z,2.7
2018-06-14T08:44:17.333Z,2.2
2018-06-14T08:49:17.184Z,2.2
2018-06-14T08:54:17.929Z,1.8
2018-06-14T08:59:17.693Z,1.8
2018-06-14T09:04:17.721Z,1.8
2018-06-14T09:09:17.792Z,1.8
2018-06-14T09:14:17.839Z,2.2
2018-06-14T09:19:17.682Z,2.2
2018-06-14T09:24:17.441Z,2.2
2018-06-14T09:29:17.224Z,2.2
2018-06-14T09:34:17.119Z,2.5
2018-06-14T09:39:17.845Z,2.5
2018-06-14T09:44:17.601Z,2.7
2018-06-14T09:49:17.469Z,2.7
2018-06-14T09:54:17.150Z,2.2
2018-06-14T09:59:17.869Z,2.2
2018-06-14T10:04:17.677Z,2.2
2018-06-14T10:09:17.696Z,2.2
2018-06-14T10:14:17.571Z,2.7
2018-06-14T10:19:17.355Z,2.7
2018-06-14T10:24:18.101Z,2.5
2018-06-14T10:29:17.912Z,2.5
2018-06-14T10:34:17.755Z,2.5
2018-06-14T10:39:17.673Z,2.5
2018-06-14T10:44:17.430Z,2.8
2018-06-14T10:49:18.180Z,2.8
2018-06-14T10:54:17.935Z,2.7
2018-06-14T10:59:17.873Z,2.7
2018-06-14T11:04:18.079Z,2.2
2018-06-14T11:09:18.189Z,2.2
2018-06-14T11:14:18.033Z,3.6
2018-06-14T11:19:17.892Z,3.6
2018-06-14T11:24:17.789Z,2.7
2018-06-14T11:29:17.471Z,2.7
2018-06-14T11:34:18.291Z,2.2
2018-06-14T11:39:18.077Z,2.2
2018-06-14T11:44:17.853Z,2.7
2018-06-14T11:49:17.700Z,2.7
2018-06-14T11:54:17.568Z,2.7
2018-06-14T11:59:17.384Z,2.7
2018-06-14T12:04:18.634Z,3.4
2018-06-14T12:09:17.780Z,3.4
2018-06-14T12:14:17.346Z,2.4
2018-06-14T12:19:18.298Z,2.4
2018-06-14T12:24:18.197Z,3.1
2018-06-14T12:29:18.037Z,3.1
2018-06-14T12:34:17.984Z,2.7
2018-06-14T12:39:17.759Z,2.7
2018-06-14T12:44:17.617Z,3.1
2018-06-14T12:49:17.502Z,3.1
2018-06-14T12:54:18.247Z,2.7
2018-06-14T12:59:18.002Z,2.7
2018-06-14T13:04:18.176Z,3.1
2018-06-14T13:09:18.061Z,3.1
2018-06-14T13:14:18.251Z,2.2
2018-06-14T13:19:18.123Z,2.2
2018-06-14T13:24:17.985Z,4
2018-06-14T13:29:17.893Z,4
2018-06-14T13:34:17.833Z,2.7
2018-06-14T13:39:17.636Z,2.7
2018-06-14T13:44:17.502Z,2.5
2018-06-14T13:49:18.318Z,2.5
2018-06-14T13:54:18.129Z,3
2018-06-14T13:59:17.912Z,3
2018-06-14T14:04:18.313Z,2.8
2018-06-14T14:09:18.051Z,2.8
2018-06-14T14:14:17.687Z,2.3
2018-06-14T14:19:17.616Z,2.3
2018-06-14T14:24:17.446Z,2.7
2018-06-14T14:29:18.309Z,2.7
2018-06-14T14:34:18.456Z,2.7
2018-06-14T14:39:18.223Z,2.7
2018-06-14T14:44:17.973Z,2.7
2018-06-14T14:49:17.770Z,2.7
2018-06-14T14:54:17.505Z,2.2
2018-06-14T14:59:18.474Z,2.2
2018-06-14T15:04:18.383Z,2.2
2018-06-14T15:09:18.280Z,2.2
2018-06-14T15:14:18.037Z,2.8
2018-06-14T15:19:17.966Z,2.8
2018-06-14T15:24:17.697Z,2.2
2018-06-14T15:29:17.503Z,2.2
2018-06-14T15:34:17.675Z,2.7
2018-06-14T15:39:18.578Z,2.7
2018-06-14T15:44:18.469Z,2.2
2018-06-14T15:49:18.280Z,2.2
2018-06-14T15:54:18.052Z,2.7
2018-06-14T15:59:17.998Z,2.7
2018-06-14T16:04:18.212Z,2.2
2018-06-14T16:09:17.985Z,2.2
2018-06-14T16:14:18.071Z,1.8
2018-06-14T16:19:17.868Z,1.8
2018-06-14T16:24:17.625Z,2.2
2018-06-14T16:29:18.381Z,2.2
2018-06-14T16:34:18.310Z,2.8
2018-06-14T16:39:18.054Z,2.8
2018-06-14T16:44:17.946Z,3.1
2018-06-14T16:49:17.680Z,3.1
2018-06-14T16:54:18.351Z,2.7
2018-06-14T16:59:18.130Z,2.7
2018-06-14T17:04:18.383Z,2.4
2018-06-14T17:09:18.245Z,2.4
2018-06-14T17:14:17.784Z,2.3
2018-06-14T17:19:18.672Z,2.3
2018-06-14T17:24:18.461Z,2.4
2018-06-14T17:29:18.294Z,2.4
2018-06-14T17:34:18.168Z,3.4
2018-06-14T17:39:17.967Z,3.4
2018-06-14T17:44:17.863Z,3.7
2018-06-14T17:49:18.652Z,3.7
2018-06-14T17:54:18.395Z,2.2
2018-06-14T17:59:18.273Z,2.2
2018-06-14T18:04:18.308Z,1.8
2018-06-14T18:09:18.166Z,1.8
2018-06-14T18:14:18.144Z,1.8
2018-06-14T18:19:18.023Z,1.8
2018-06-14T18:24:17.761Z,1.8
2018-06-14T18:29:18.539Z,1.8
2018-06-14T18:34:18.404Z,1.8
2018-06-14T18:39:18.293Z,1.8
2018-06-14T18:44:18.197Z,1.3
2018-06-14T18:49:18.180Z,1.3
2018-06-14T18:54:17.965Z,1.3
2018-06-14T18:59:18.723Z,1.3
2018-06-14T19:04:18.620Z,0.9
2018-06-14T19:09:18.434Z,0.9
2018-06-14T19:14:18.204Z,0.9
2018-06-14T19:19:17.961Z,0.9
2018-06-14T19:24:18.759Z,0.9
2018-06-14T19:29:18.641Z,0.9
2018-06-14T19:34:18.665Z,0.4
2018-06-14T19:39:18.493Z,0.4
2018-06-14T19:44:18.363Z,1.2
2018-06-14T19:49:18.429Z,1.2
2018-06-14T19:54:18.184Z,1.2
2018-06-14T19:59:17.999Z,1.2
2018-06-14T20:04:17.913Z,1.3
2018-06-14T20:09:18.721Z,1.3
2018-06-14T20:14:17.973Z,1.3
2018-06-14T20:19:18.741Z,1.3
2018-06-14T20:24:18.465Z,1.3
2018-06-14T20:29:18.419Z,1.3
2018-06-14T20:34:18.344Z,1.3
2018-06-14T20:39:18.144Z,1.3
2018-06-14T20:44:17.950Z,1.3
2018-06-14T20:49:18.723Z,1.3
2018-06-14T20:54:18.441Z,1.3
2018-06-14T20:59:18.113Z,1.3
2018-06-14T21:04:18.080Z,1.3
2018-06-14T21:09:18.929Z,1.3
2018-06-14T21:14:18.729Z,0.9
2018-06-14T21:19:18.745Z,0.9
2018-06-14T21:24:18.523Z,0.9
2018-06-14T21:29:18.405Z,0.9
2018-06-14T21:34:18.238Z,0.9
2018-06-14T21:39:17.920Z,0.9
2018-06-14T21:44:18.745Z,1.3
2018-06-14T21:49:18.569Z,1.3
2018-06-14T21:54:18.373Z,1.3
2018-06-14T21:59:18.132Z,1.3
2018-06-14T22:04:18.272Z,1
2018-06-14T22:09:18.203Z,1
2018-06-14T22:14:18.893Z,1.6
2018-06-14T22:19:18.934Z,1.6
2018-06-14T22:24:18.730Z,1.3
2018-06-14T22:29:18.583Z,1.3
2018-06-14T22:34:18.399Z,1.3
2018-06-14T22:39:18.244Z,1.3
2018-06-14T22:44:18.069Z,1.3
2018-06-14T22:49:18.956Z,1.3
2018-06-14T22:54:18.880Z,1.3
2018-06-14T22:59:18.632Z,1.3
2018-06-14T23:04:18.736Z,1.3
2018-06-14T23:09:18.589Z,1.3
2018-06-14T23:14:18.411Z,1.1
2018-06-14T23:19:18.208Z,1.1
2018-06-14T23:24:18.927Z,1.3
2018-06-14T23:29:18.944Z,1.3
2018-06-14T23:34:18.725Z,1.3
2018-06-14T23:39:18.534Z,1.3
2018-06-14T23:44:18.345Z,1.3
2018-06-14T23:49:18.480Z,1.3
2018-06-14T23:54:18.281Z,1.3
2018-06-14T23:59:19.152Z,1.3
